createdAt,value
2024-05-09T00:00:22.536Z,3.80
2024-05-09T00:02:57.619Z,8.40
2024-05-09T00:05:25.316Z,9.00
2024-05-09T00:07:53.038Z,5.40
2024-05-09T00:10:28.821Z,5.90
2024-05-09T00:13:03.188Z,8.40
2024-05-09T00:15:30.982Z,4.60
2024-05-09T00:17:58.939Z,6.10
2024-05-09T00:20:35.084Z,8.10
2024-05-09T00:23:07.252Z,7.10
2024-05-09T00:25:58.552Z,6.40
2024-05-09T00:28:59.535Z,7.90
2024-05-09T00:31:27.308Z,6.50
2024-05-09T00:33:55.359Z,7.10
2024-05-09T00:36:22.983Z,7.80
2024-05-09T00:38:50.585Z,6.90
2024-05-09T00:41:19.751Z,8.80
2024-05-09T00:44:07.583Z,8.30
2024-05-09T00:46:48.716Z,5.60
2024-05-09T00:49:16.568Z,4.60
2024-05-09T00:51:44.162Z,6.20
2024-05-09T00:54:11.675Z,6.40
2024-05-09T00:56:39.187Z,5.80
2024-05-09T00:59:06.686Z,5.30
2024-05-09T01:01:34.425Z,7.20
2024-05-09T01:04:02.124Z,8.10
2024-05-09T01:06:49.591Z,8.10
2024-05-09T01:09:38.699Z,5.70
2024-05-09T01:12:06.859Z,6.70
2024-05-09T01:14:37.035Z,8.20
2024-05-09T01:17:04.743Z,5.40
2024-05-09T01:19:32.830Z,6.00
2024-05-09T01:22:20.614Z,6.30
2024-05-09T01:25:01.674Z,5.20
2024-05-09T01:27:30.636Z,6.00
2024-05-09T01:29:58.116Z,6.00
2024-05-09T01:32:25.951Z,8.40
2024-05-09T01:34:53.571Z,5.70
2024-05-09T01:37:21.072Z,7.70
2024-05-09T01:39:48.629Z,7.40
2024-05-09T01:42:17.196Z,5.20
2024-05-09T01:44:45.085Z,6.80
2024-05-09T01:47:12.643Z,3.80
2024-05-09T01:49:40.280Z,8.10
2024-05-09T01:52:27.686Z,5.70
2024-05-09T01:55:28.633Z,6.60
2024-05-09T01:58:00.045Z,6.30
2024-05-09T02:00:36.167Z,5.90
2024-05-09T02:03:14.601Z,7.60
2024-05-09T02:05:45.610Z,6.80
2024-05-09T02:08:27.759Z,4.90
2024-05-09T02:11:28.705Z,6.80
2024-05-09T02:14:10.160Z,7.60
2024-05-09T02:16:37.890Z,9.30
2024-05-09T02:19:06.111Z,6.80
2024-05-09T02:21:34.490Z,9.20
2024-05-09T02:24:02.001Z,7.00
2024-05-09T02:26:29.593Z,6.90
2024-05-09T02:28:57.274Z,6.30
2024-05-09T02:31:24.865Z,5.90
2024-05-09T02:33:52.499Z,7.10
2024-05-09T02:36:20.335Z,7.00
2024-05-09T02:38:47.950Z,6.60
2024-05-09T02:41:15.520Z,9.00
2024-05-09T02:44:03.774Z,5.00
2024-05-09T02:47:04.739Z,4.60
2024-05-09T02:49:45.923Z,6.10
2024-05-09T02:52:17.561Z,8.00
2024-05-09T02:54:45.145Z,8.60
2024-05-09T02:57:12.767Z,6.70
2024-05-09T02:59:40.247Z,6.00
2024-05-09T03:02:07.790Z,9.80
2024-05-09T03:04:35.350Z,9.80
2024-05-09T03:07:06.235Z,7.30
2024-05-09T03:09:34.094Z,6.00
2024-05-09T03:12:01.736Z,6.40
2024-05-09T03:14:29.383Z,7.00
2024-05-09T03:16:56.957Z,6.80
2024-05-09T03:19:38.011Z,12.90
2024-05-09T03:22:05.588Z,15.60
2024-05-09T03:24:33.071Z,13.50
2024-05-09T03:27:00.640Z,15.30
2024-05-09T03:29:28.255Z,12.20
2024-05-09T03:31:55.973Z,14.50
2024-05-09T03:34:24.160Z,9.80
2024-05-09T03:36:51.747Z,8.60
2024-05-09T03:39:19.299Z,10.30
2024-05-09T03:41:46.836Z,4.70
2024-05-09T03:44:14.341Z,10.80
2024-05-09T03:46:41.790Z,8.40
2024-05-09T03:49:09.542Z,8.50
2024-05-09T03:51:37.121Z,6.10
2024-05-09T03:54:04.596Z,9.80
2024-05-09T03:56:32.198Z,10.50
2024-05-09T03:59:00.072Z,7.00
2024-05-09T04:01:29.982Z,5.40
2024-05-09T04:03:57.731Z,5.50
2024-05-09T04:06:25.770Z,5.90
2024-05-09T04:08:53.389Z,6.40
2024-05-09T04:11:21.054Z,7.40
2024-05-09T04:13:48.659Z,6.20
2024-05-09T04:16:16.283Z,4.10
2024-05-09T04:18:43.927Z,4.70
2024-05-09T04:21:11.590Z,5.70
2024-05-09T04:23:39.392Z,6.10
2024-05-09T04:26:08.532Z,6.60
2024-05-09T04:28:36.184Z,8.30
2024-05-09T04:31:03.959Z,4.70
2024-05-09T04:33:31.577Z,5.30
2024-05-09T04:35:59.142Z,5.70
2024-05-09T04:38:26.644Z,6.00
2024-05-09T04:40:54.191Z,7.60
2024-05-09T04:43:22.146Z,4.90
2024-05-09T04:45:50.020Z,4.30
2024-05-09T04:48:17.897Z,5.20
2024-05-09T04:50:45.714Z,5.70
2024-05-09T04:53:16.778Z,5.70
2024-05-09T04:55:44.767Z,7.30
2024-05-09T04:58:15.430Z,7.40
2024-05-09T05:00:44.474Z,7.10
2024-05-09T05:03:14.622Z,6.00
2024-05-09T05:05:45.036Z,8.20
2024-05-09T05:08:15.019Z,8.10
2024-05-09T05:10:43.298Z,6.10
2024-05-09T05:13:22.268Z,7.50
2024-05-09T05:15:53.134Z,5.70
2024-05-09T05:18:21.626Z,8.00
2024-05-09T05:20:49.364Z,7.80
2024-05-09T05:23:20.764Z,8.10
2024-05-09T05:25:55.289Z,9.50
2024-05-09T05:28:23.548Z,8.70
2024-05-09T05:30:51.630Z,6.40
2024-05-09T05:33:20.217Z,5.90
2024-05-09T05:35:48.227Z,8.70
2024-05-09T05:38:15.898Z,5.90
2024-05-09T05:40:43.609Z,7.10
2024-05-09T05:43:20.473Z,6.90
2024-05-09T05:45:48.043Z,7.00
2024-05-09T05:48:17.174Z,6.60
2024-05-09T05:50:45.368Z,5.10
2024-05-09T05:53:13.198Z,6.40
2024-05-09T05:55:41.006Z,7.10
2024-05-09T05:58:10.159Z,6.50
2024-05-09T06:00:39.889Z,6.10
2024-05-09T06:03:13.695Z,5.80
2024-05-09T06:05:46.709Z,7.40
2024-05-09T06:08:14.736Z,7.20
2024-05-09T06:10:42.636Z,6.20
2024-05-09T06:13:11.858Z,4.50
2024-05-09T06:15:40.295Z,6.10
2024-05-09T06:18:08.482Z,6.20
2024-05-09T06:20:38.178Z,5.70
2024-05-09T06:23:06.636Z,6.40
2024-05-09T06:25:35.573Z,8.40
2024-05-09T06:28:03.594Z,6.30
2024-05-09T06:30:38.662Z,9.80
2024-05-09T06:33:10.450Z,7.70
2024-05-09T06:35:39.812Z,3.70
2024-05-09T06:38:10.898Z,5.40
2024-05-09T06:40:41.096Z,9.30
2024-05-09T06:43:14.327Z,5.90
2024-05-09T06:45:42.459Z,4.60
2024-05-09T06:48:10.484Z,5.90
2024-05-09T06:50:39.904Z,6.10
2024-05-09T06:53:08.514Z,4.00
2024-05-09T06:55:36.640Z,4.20
2024-05-09T06:58:05.568Z,4.10
2024-05-09T07:00:38.893Z,7.30
2024-05-09T07:03:15.346Z,7.70
2024-05-09T07:05:45.844Z,5.80
2024-05-09T07:08:14.199Z,9.20
2024-05-09T07:10:41.858Z,7.40
2024-05-09T07:13:10.222Z,5.10
2024-05-09T07:15:38.039Z,4.90
2024-05-09T07:18:12.585Z,5.60
2024-05-09T07:20:40.898Z,5.60
2024-05-09T07:23:09.750Z,5.60
2024-05-09T07:25:37.621Z,5.30
2024-05-09T07:28:05.469Z,3.50
2024-05-09T07:30:34.622Z,5.10
2024-05-09T07:33:03.614Z,8.40
2024-05-09T07:35:31.631Z,4.60
2024-05-09T07:37:59.988Z,4.60
2024-05-09T07:40:35.091Z,5.00
2024-05-09T07:43:04.947Z,3.10
2024-05-09T07:52:23.648Z,5.40
2024-05-09T07:53:39.500Z,3.50
2024-05-09T07:56:11.698Z,4.90
2024-05-09T07:58:39.972Z,5.30
2024-05-09T08:01:07.501Z,4.10
2024-05-09T08:03:35.754Z,5.40
2024-05-09T08:06:03.673Z,4.50
2024-05-09T08:08:34.454Z,5.20
2024-05-09T08:11:03.561Z,6.90
2024-05-09T08:13:31.734Z,4.10
2024-05-09T08:15:59.370Z,6.50
2024-05-09T08:18:26.984Z,5.10
2024-05-09T08:21:15.357Z,6.30
2024-05-09T08:23:56.405Z,6.20
2024-05-09T08:26:23.907Z,4.70
2024-05-09T08:28:51.798Z,5.20
2024-05-09T08:31:19.447Z,4.30
2024-05-09T08:33:47.648Z,2.50
2024-05-09T08:36:16.189Z,5.00
2024-05-09T08:38:44.054Z,6.30
2024-05-09T08:41:13.448Z,3.60
2024-05-09T08:44:02.329Z,6.10
2024-05-09T08:47:04.415Z,3.90
2024-05-09T08:49:45.550Z,4.10
2024-05-09T08:52:13.258Z,6.00
2024-05-09T08:54:40.827Z,6.20
2024-05-09T08:57:08.342Z,4.10
2024-05-09T08:59:36.644Z,2.90
2024-05-09T09:02:05.269Z,5.90
2024-05-09T09:04:33.528Z,2.90
2024-05-09T09:07:21.445Z,6.30
2024-05-09T09:10:29.611Z,3.60
2024-05-09T09:13:32.389Z,3.10
2024-05-09T09:16:33.409Z,3.60
2024-05-09T09:19:16.495Z,3.90
2024-05-09T09:21:44.311Z,4.20
2024-05-09T09:24:32.462Z,9.00
2024-05-09T09:27:33.492Z,6.50
2024-05-09T09:30:37.556Z,4.90
2024-05-09T09:33:19.746Z,5.30
2024-05-09T09:35:47.469Z,4.00
2024-05-09T09:38:16.337Z,6.00
2024-05-09T09:43:33.610Z,4.00
2024-05-09T09:46:02.102Z,2.50
2024-05-09T09:48:31.273Z,5.00
2024-05-09T09:50:58.839Z,2.70
2024-05-09T09:53:26.604Z,5.10
2024-05-09T09:55:55.805Z,3.70
2024-05-09T09:58:23.397Z,2.70
2024-05-09T10:00:50.999Z,4.50
2024-05-09T10:03:18.672Z,4.20
2024-05-09T10:05:47.476Z,3.20
2024-05-09T10:08:35.572Z,5.30
2024-05-09T10:11:21.029Z,3.40
2024-05-09T10:16:20.203Z,5.00
2024-05-09T10:18:48.077Z,3.90
2024-05-09T10:21:35.729Z,5.30
2024-05-09T10:24:36.645Z,4.90
2024-05-09T10:27:30.267Z,3.20
2024-05-09T10:30:02.840Z,4.70
2024-05-09T10:32:37.855Z,5.90
2024-05-09T10:35:08.816Z,3.10
2024-05-09T10:37:36.463Z,8.80
2024-05-09T10:40:26.595Z,3.20
2024-05-09T10:43:11.788Z,4.40
2024-05-09T10:45:46.141Z,9.80
2024-05-09T10:48:13.792Z,5.20
2024-05-09T10:50:43.645Z,3.90
2024-05-09T10:53:11.202Z,5.00
2024-05-09T10:55:38.694Z,3.60
2024-05-09T10:58:16.958Z,3.70
2024-05-09T11:00:44.791Z,4.70
2024-05-09T11:03:12.540Z,1.70
2024-05-09T11:05:42.285Z,4.50
2024-05-09T11:08:10.716Z,2.00
2024-05-09T11:10:38.210Z,1.90
2024-05-09T11:13:06.088Z,2.70
2024-05-09T11:15:40.918Z,3.10
2024-05-09T11:18:08.738Z,4.90
2024-05-09T11:20:37.260Z,2.10
2024-05-09T11:23:06.082Z,1.60
2024-05-09T11:25:33.672Z,4.00
2024-05-09T11:28:01.385Z,2.70
2024-05-09T11:30:32.062Z,7.40
2024-05-09T11:33:00.450Z,3.90
2024-05-09T11:35:29.253Z,3.90
2024-05-09T11:38:16.704Z,3.90
2024-05-09T11:41:17.678Z,4.60
2024-05-09T11:43:58.772Z,5.60
2024-05-09T11:46:26.493Z,3.00
2024-05-09T11:48:54.282Z,4.70
2024-05-09T11:51:22.131Z,5.30
2024-05-09T11:53:49.676Z,4.40
2024-05-09T11:56:17.309Z,3.20
2024-05-09T11:58:44.900Z,3.60
2024-05-09T12:01:27.914Z,2.20
2024-05-09T12:04:28.804Z,2.10
2024-05-09T12:07:27.769Z,3.10
2024-05-09T12:09:55.409Z,4.30
2024-05-09T12:12:23.038Z,2.40
2024-05-09T12:14:50.582Z,2.30
2024-05-09T12:17:18.120Z,3.70
2024-05-09T12:19:45.865Z,4.40
2024-05-09T12:22:13.479Z,3.90
2024-05-09T12:24:41.076Z,3.80
2024-05-09T12:27:08.560Z,3.20
2024-05-09T12:29:38.905Z,4.30
2024-05-09T12:32:06.976Z,3.00
2024-05-09T12:34:34.582Z,6.70
2024-05-09T12:37:02.384Z,2.40
2024-05-09T12:39:30.042Z,3.90
2024-05-09T12:41:57.693Z,3.60
2024-05-09T12:44:25.194Z,3.30
2024-05-09T12:46:52.924Z,3.80
2024-05-09T12:49:21.618Z,1.80
2024-05-09T12:51:49.762Z,3.50
2024-05-09T12:54:17.392Z,4.10
2024-05-09T12:56:45.015Z,4.20
2024-05-09T12:59:12.520Z,2.20
2024-05-09T13:01:40.126Z,7.20
2024-05-09T13:04:07.925Z,4.60
2024-05-09T13:06:35.613Z,4.20
2024-05-09T13:09:03.239Z,1.80
2024-05-09T13:11:30.763Z,4.90
2024-05-09T13:13:58.288Z,3.90
2024-05-09T13:16:25.972Z,2.40
2024-05-09T13:18:53.655Z,3.10
2024-05-09T13:21:21.148Z,4.00
2024-05-09T13:23:48.758Z,9.70
2024-05-09T13:26:16.570Z,5.40
2024-05-09T13:28:44.045Z,3.50
2024-05-09T13:31:11.668Z,4.80
2024-05-09T13:33:39.328Z,2.60
2024-05-09T13:36:07.631Z,2.80
2024-05-09T13:38:35.354Z,5.20
2024-05-09T13:41:02.913Z,2.20
2024-05-09T13:43:30.594Z,2.00
2024-05-09T13:45:58.373Z,2.90
2024-05-09T13:48:26.031Z,4.20
2024-05-09T13:50:53.524Z,4.50
2024-05-09T13:53:21.104Z,3.00
2024-05-09T13:55:48.684Z,2.60
2024-05-09T13:58:16.483Z,6.30
2024-05-09T14:00:49.188Z,6.10
2024-05-09T14:03:22.383Z,3.20
2024-05-09T14:05:51.356Z,5.30
2024-05-09T14:08:21.836Z,5.90
2024-05-09T14:10:50.094Z,5.10
2024-05-09T14:13:18.215Z,3.10
2024-05-09T14:15:46.579Z,3.20
2024-05-09T14:18:14.726Z,1.50
2024-05-09T14:20:42.964Z,2.90
2024-05-09T14:23:10.762Z,2.30
2024-05-09T14:25:42.182Z,3.00
2024-05-09T14:28:12.544Z,4.70
2024-05-09T14:30:41.609Z,5.10
2024-05-09T14:33:09.790Z,3.60
2024-05-09T14:35:38.651Z,4.50
2024-05-09T14:38:07.427Z,4.90
2024-05-09T14:40:41.319Z,5.30
2024-05-09T14:43:11.831Z,5.60
2024-05-09T14:45:39.858Z,2.30
2024-05-09T14:48:08.030Z,2.70
2024-05-09T14:50:38.946Z,2.30
2024-05-09T14:53:12.052Z,2.90
2024-05-09T14:55:41.727Z,3.50
2024-05-09T14:58:10.923Z,2.60
2024-05-09T15:00:46.664Z,6.80
2024-05-09T15:03:19.365Z,2.30
2024-05-09T15:05:47.409Z,3.50
2024-05-09T15:08:16.193Z,2.30
2024-05-09T15:10:43.831Z,5.20
2024-05-09T15:13:13.423Z,3.50
2024-05-09T15:15:43.380Z,2.40
2024-05-09T15:18:11.463Z,2.50
2024-05-09T15:23:07.699Z,3.30
2024-05-09T15:25:36.399Z,4.00
2024-05-09T15:28:07.161Z,4.70
2024-05-09T15:30:35.235Z,6.60
2024-05-09T15:33:06.841Z,3.00
2024-05-09T15:35:35.934Z,4.40
2024-05-09T15:38:04.389Z,2.00
2024-05-09T15:40:39.036Z,2.20
2024-05-09T15:43:09.547Z,4.00
2024-05-09T15:45:40.093Z,2.80
2024-05-09T15:48:09.052Z,6.40
2024-05-09T15:50:40.789Z,12.20
2024-05-09T15:53:11.147Z,3.10
2024-05-09T15:55:39.592Z,2.00
2024-05-09T15:58:07.660Z,4.40
2024-05-09T16:00:39.827Z,5.00
2024-05-09T16:03:11.087Z,4.70
2024-05-09T16:05:40.666Z,3.20
2024-05-09T16:08:08.390Z,4.40
2024-05-09T16:10:39.243Z,25.00
2024-05-09T16:13:07.627Z,2.60
2024-05-09T16:15:35.179Z,4.60
2024-05-09T16:18:02.819Z,2.20
2024-05-09T16:20:38.813Z,3.30
2024-05-09T16:23:09.843Z,3.00
2024-05-09T16:25:43.017Z,3.40
2024-05-09T16:28:11.059Z,4.10
2024-05-09T16:30:39.849Z,3.20
2024-05-09T16:33:08.754Z,8.00
2024-05-09T16:35:40.593Z,5.90
2024-05-09T16:38:08.125Z,4.80
2024-05-09T16:40:39.726Z,9.20
2024-05-09T16:43:12.513Z,5.80
2024-05-09T16:45:41.285Z,8.60
2024-05-09T16:48:09.139Z,2.20
2024-05-09T16:50:37.084Z,2.40
2024-05-09T16:53:05.892Z,5.00
2024-05-09T16:55:35.035Z,6.00
2024-05-09T16:58:03.230Z,4.50
2024-05-09T17:00:39.422Z,1.90
2024-05-09T17:03:15.169Z,2.10
2024-05-09T17:05:46.762Z,9.10
2024-05-09T17:08:16.347Z,8.60
2024-05-09T17:10:45.069Z,9.00
2024-05-09T17:13:12.750Z,10.30
2024-05-09T17:15:40.776Z,6.80
2024-05-09T17:18:09.615Z,9.90
2024-05-09T17:20:37.821Z,10.80
2024-05-09T17:23:12.857Z,15.70
2024-05-09T17:25:41.198Z,11.80
2024-05-09T17:28:09.206Z,9.00
2024-05-09T17:30:38.763Z,8.40
2024-05-09T17:33:09.331Z,3.80
2024-05-09T17:35:38.121Z,6.70
2024-05-09T17:38:06.178Z,6.10
2024-05-09T17:40:36.595Z,12.00
2024-05-09T17:43:08.203Z,9.60
2024-05-09T17:45:38.331Z,15.00
2024-05-09T17:48:06.581Z,10.10
2024-05-09T17:50:36.658Z,10.10
2024-05-09T17:53:06.043Z,7.70
2024-05-09T17:55:35.359Z,9.40
2024-05-09T17:58:06.498Z,7.70
2024-05-09T18:00:39.237Z,4.90
2024-05-09T18:03:13.483Z,6.00
2024-05-09T18:08:12.096Z,5.10
2024-05-09T18:10:43.039Z,5.80
2024-05-09T18:13:11.893Z,4.30
2024-05-09T18:15:40.260Z,3.60
2024-05-09T18:18:08.924Z,6.70
2024-05-09T18:20:42.632Z,21.40
2024-05-09T18:23:17.778Z,15.30
2024-05-09T18:25:47.131Z,5.10
2024-05-09T18:28:16.134Z,6.30
2024-05-09T18:30:44.096Z,9.30
2024-05-09T18:33:12.188Z,29.10
2024-05-09T18:35:43.893Z,24.70
2024-05-09T18:38:11.555Z,13.40
2024-05-09T18:40:40.898Z,6.70
2024-05-09T18:43:10.228Z,185.50
2024-05-09T18:45:38.429Z,513.10
2024-05-09T18:48:08.157Z,265.50
2024-05-09T18:50:39.453Z,437.70
2024-05-09T18:55:37.730Z,119.30
2024-05-09T18:58:05.380Z,51.00
2024-05-09T19:00:36.964Z,92.90
2024-05-09T19:03:09.253Z,175.40
2024-05-09T19:05:39.408Z,136.60
2024-05-09T19:08:07.954Z,113.00
2024-05-09T19:10:36.976Z,54.70
2024-05-09T19:13:09.178Z,28.20
2024-05-09T19:15:40.474Z,60.30
2024-05-09T19:18:09.296Z,244.80
2024-05-09T19:20:37.641Z,117.50
2024-05-09T19:23:06.450Z,69.30
2024-05-09T19:25:35.234Z,30.50
2024-05-09T19:28:03.830Z,85.30
2024-05-09T19:30:38.645Z,132.00
2024-05-09T19:33:11.405Z,174.90
2024-05-09T19:35:40.231Z,106.60
2024-05-09T19:38:07.613Z,129.10
2024-05-09T19:40:35.786Z,202.00
2024-05-09T19:43:04.738Z,224.30
2024-05-09T19:45:34.828Z,193.30
2024-05-09T19:48:04.090Z,139.40
2024-05-09T19:50:39.877Z,303.00
2024-05-09T19:53:12.213Z,346.10
2024-05-09T19:55:40.683Z,81.40
2024-05-09T19:58:08.962Z,30.60
2024-05-09T20:00:39.545Z,125.20
2024-05-09T20:03:10.734Z,242.60
2024-05-09T20:05:39.046Z,130.20
2024-05-09T20:08:07.655Z,155.50
2024-05-09T20:10:36.503Z,128.20
2024-05-09T20:13:06.417Z,152.00
2024-05-09T20:15:36.102Z,132.20
2024-05-09T20:18:04.319Z,71.50
2024-05-09T20:20:37.808Z,33.20
2024-05-09T20:23:10.103Z,48.80
2024-05-09T20:25:37.838Z,75.40
2024-05-09T20:28:06.270Z,131.00
2024-05-09T20:30:34.795Z,199.00
2024-05-09T20:33:04.550Z,255.50
2024-05-09T20:35:33.526Z,107.30
2024-05-09T20:38:01.778Z,112.70
2024-05-09T20:40:34.263Z,47.70
2024-05-09T20:43:06.247Z,71.40
2024-05-09T20:45:34.680Z,19.60
2024-05-09T20:48:02.663Z,16.10
2024-05-09T20:50:37.496Z,66.30
2024-05-09T20:53:09.103Z,78.50
2024-05-09T20:55:36.909Z,68.00
2024-05-09T20:58:04.882Z,379.70
2024-05-09T21:00:40.156Z,97.50
2024-05-09T21:03:12.569Z,313.10
2024-05-09T21:05:41.257Z,360.60
2024-05-09T21:08:09.250Z,73.10
2024-05-09T21:10:37.609Z,48.20
2024-05-09T21:13:06.687Z,174.70
2024-05-09T21:15:35.625Z,9.90
2024-05-09T21:18:04.424Z,88.10
2024-05-09T21:20:34.430Z,132.60
2024-05-09T21:23:02.775Z,412.20
2024-05-09T21:25:30.812Z,168.60
2024-05-09T21:27:58.618Z,18.70
2024-05-09T21:30:33.161Z,9.60
2024-05-09T21:33:09.936Z,34.00
2024-05-09T21:35:39.089Z,9.70
2024-05-09T21:38:07.717Z,13.50
2024-05-09T21:40:36.900Z,7.60
2024-05-09T21:43:06.437Z,25.60
2024-05-09T21:45:34.526Z,279.40
2024-05-09T21:48:06.177Z,91.30
2024-05-09T21:50:39.882Z,62.80
2024-05-09T21:53:11.211Z,243.10
2024-05-09T21:55:39.022Z,76.70
2024-05-09T21:58:06.650Z,166.20
2024-05-09T22:00:38.019Z,149.50
2024-05-09T22:05:35.551Z,335.80
2024-05-09T22:08:03.567Z,138.40
2024-05-09T22:10:34.656Z,91.90
2024-05-09T22:13:08.331Z,182.20
2024-05-09T22:15:37.646Z,255.90
2024-05-09T22:18:07.308Z,88.60
2024-05-09T22:20:38.470Z,57.00
2024-05-09T22:23:08.337Z,104.50
2024-05-09T22:25:38.379Z,131.60
2024-05-09T22:28:06.409Z,117.40
2024-05-09T22:30:37.979Z,493.50
2024-05-09T22:33:08.485Z,230.40
2024-05-09T22:35:37.075Z,188.10
2024-05-09T22:38:04.730Z,121.80
2024-05-09T22:40:41.985Z,127.90
2024-05-09T22:43:25.311Z,240.80
2024-05-09T22:45:54.949Z,158.60
2024-05-09T22:48:24.602Z,105.30
2024-05-09T22:50:53.274Z,27.40
2024-05-09T22:53:24.931Z,7.40
2024-05-09T22:55:52.651Z,33.30
2024-05-09T22:58:20.799Z,146.10
2024-05-09T23:00:48.698Z,83.80
2024-05-09T23:03:16.575Z,62.60
2024-05-09T23:05:44.342Z,28.20
2024-05-09T23:08:11.830Z,58.20
2024-05-09T23:10:39.395Z,65.90
2024-05-09T23:13:07.792Z,102.20
2024-05-09T23:15:36.514Z,44.20
2024-05-09T23:18:04.414Z,13.60
2024-05-09T23:20:37.480Z,6.20
2024-05-09T23:23:08.029Z,6.30
2024-05-09T23:25:36.607Z,18.30
2024-05-09T23:28:04.595Z,27.40
2024-05-09T23:30:37.871Z,42.90
2024-05-09T23:33:09.829Z,39.40
2024-05-09T23:35:38.464Z,16.30
2024-05-09T23:38:05.966Z,71.40
2024-05-09T23:40:39.135Z,83.10
2024-05-09T23:43:10.014Z,22.00
2024-05-09T23:45:38.060Z,7.30
2024-05-09T23:48:06.063Z,4.60
2024-05-09T23:50:36.799Z,5.80
2024-05-09T23:53:07.650Z,4.50
2024-05-09T23:55:36.586Z,4.60
2024-05-09T23:58:04.380Z,6.10
